Time;durP1;ratioP1;P1;durP2;ratioP2;P2;SDS_P1;SDS_P2;PMS_P1;PMS_P2;Temp;Humidity;BMP_temperature;BMP_pressure;BME280_temperature;BME280_humidity;BME280_pressure;Samples;Min_cycle;Max_cycle;Signal;HPM_P1;HPM_P2
2023/12/08 00:01:32;;;;;;;16.52;7.95;;;;;;;0.27;100.00;101044.03;6254534;28;20056;-68
2023/12/08 00:04:33;;;;;;;16.95;7.25;;;;;;;0.29;100.00;101052.66;6254330;28;20053;-69
2023/12/08 00:07:34;;;;;;;13.43;7.00;;;;;;;0.27;100.00;101056.97;6254387;28;20057;-68
2023/12/08 00:10:36;;;;;;;20.83;8.27;;;;;;;0.20;100.00;101054.44;6254149;28;20045;-68
2023/12/08 00:13:38;;;;;;;25.52;6.90;;;;;;;0.28;100.00;101041.47;6253578;28;20331;-68
2023/12/08 00:16:40;;;;;;;22.73;9.10;;;;;;;0.28;100.00;101038.88;6254145;28;20053;-68
2023/12/08 00:19:41;;;;;;;14.75;7.60;;;;;;;0.25;100.00;101037.16;6253899;28;20056;-68
2023/12/08 00:22:43;;;;;;;18.88;7.43;;;;;;;0.32;100.00;101025.06;6253762;28;20509;-68
2023/12/08 00:25:44;;;;;;;15.15;7.40;;;;;;;0.37;100.00;101019.88;6253669;28;20049;-68
2023/12/08 00:28:47;;;;;;;20.80;8.00;;;;;;;0.37;100.00;101017.28;6254015;28;20079;-70
2023/12/08 00:31:48;;;;;;;19.83;8.57;;;;;;;0.36;100.00;101006.06;6253104;28;20128;-69
2023/12/08 00:34:50;;;;;;;17.13;6.80;;;;;;;0.40;100.00;101002.59;6253068;28;20049;-68
2023/12/08 00:37:51;;;;;;;17.83;7.35;;;;;;;0.40;100.00;100970.72;6248755;28;20041;-68
2023/12/08 00:40:54;;;;;;;17.13;8.05;;;;;;;0.26;100.00;100976.00;6253128;28;20052;-68
2023/12/08 00:43:57;;;;;;;16.55;6.65;;;;;;;0.27;100.00;100972.53;6248759;28;20125;-68
2023/12/08 00:46:58;;;;;;;21.73;7.82;;;;;;;0.30;100.00;100976.84;6253224;28;20057;-69
2023/12/08 00:50:00;;;;;;;12.48;6.40;;;;;;;0.33;100.00;100958.72;6249168;28;20041;-70
2023/12/08 00:53:01;;;;;;;16.30;7.07;;;;;;;0.34;100.00;100958.72;6252696;28;20081;-70
2023/12/08 00:56:03;;;;;;;15.80;6.90;;;;;;;0.29;100.00;100952.72;6253237;28;20046;-69
2023/12/08 00:59:05;;;;;;;14.05;6.85;;;;;;;0.34;100.00;100945.78;6251944;28;20041;-68
2023/12/08 01:02:07;;;;;;;11.55;6.07;;;;;;;0.22;100.00;100948.44;6245917;28;20041;-68
2023/12/08 01:05:09;;;;;;;15.85;6.00;;;;;;;0.28;100.00;100947.56;6252548;28;20056;-69
2023/12/08 01:08:10;;;;;;;12.35;6.47;;;;;;;0.28;100.00;100942.41;6251995;28;20323;-68
2023/12/08 01:11:12;;;;;;;18.30;6.72;;;;;;;0.29;100.00;100934.63;6252494;28;20045;-68
2023/12/08 01:14:14;;;;;;;14.10;6.70;;;;;;;0.31;100.00;100934.59;6252454;28;20053;-68
2023/12/08 01:17:16;;;;;;;18.33;7.50;;;;;;;0.28;100.00;100930.34;6252745;28;20442;-69
2023/12/08 01:20:17;;;;;;;19.00;6.95;;;;;;;0.35;100.00;100913.88;6252529;28;20049;-69
2023/12/08 01:23:18;;;;;;;16.38;6.05;;;;;;;0.30;100.00;100909.63;6252232;28;20061;-69
2023/12/08 01:26:20;;;;;;;15.20;6.10;;;;;;;0.28;100.00;100908.81;6252363;28;20053;-69
2023/12/08 01:29:23;;;;;;;17.45;6.97;;;;;;;0.33;100.00;100910.47;6251697;28;20099;-68
2023/12/08 01:32:24;;;;;;;16.38;7.00;;;;;;;0.36;100.00;100902.66;6251586;28;20045;-69
2023/12/08 01:35:25;;;;;;;15.23;6.18;;;;;;;0.35;100.00;100900.09;6252166;28;20057;-70
2023/12/08 01:38:28;;;;;;;14.73;6.82;;;;;;;0.39;100.00;100897.47;6251760;28;20446;-69
2023/12/08 01:41:29;;;;;;;11.75;6.60;;;;;;;0.39;100.00;100889.72;6252212;28;20136;-68
2023/12/08 01:44:32;;;;;;;14.98;5.82;;;;;;;0.38;100.00;100884.59;6251650;28;20057;-70
2023/12/08 01:47:33;;;;;;;13.80;6.35;;;;;;;0.37;100.00;100868.22;6252160;28;20053;-69
2023/12/08 01:50:35;;;;;;;15.73;7.13;;;;;;;0.37;100.00;100846.69;6251802;28;20076;-68
2023/12/08 01:53:36;;;;;;;13.15;6.50;;;;;;;0.39;100.00;100852.69;6250417;28;20446;-69
2023/12/08 01:56:38;;;;;;;12.80;6.45;;;;;;;0.33;100.00;100855.34;6251866;28;20045;-68
2023/12/08 01:59:41;;;;;;;17.10;6.97;;;;;;;0.27;100.00;100861.41;6251538;28;20330;-68
2023/12/08 02:02:43;;;;;;;17.73;6.35;;;;;;;0.29;100.00;100854.50;6251577;28;20438;-68
2023/12/08 02:05:48;;;;;;;21.45;7.43;;;;;;;0.26;100.00;100849.34;6251226;28;20089;-70
2023/12/08 02:08:49;;;;;;;20.05;6.63;;;;;;;0.22;100.00;100837.34;6251167;28;20094;-68
2023/12/08 02:11:51;;;;;;;16.25;6.15;;;;;;;0.22;100.00;100825.25;6251382;28;20053;-69
2023/12/08 02:14:54;;;;;;;15.95;7.13;;;;;;;0.22;100.00;100830.44;6251318;28;20049;-68
2023/12/08 02:17:56;;;;;;;14.65;6.18;;;;;;;0.22;100.00;100827.84;6251135;28;20057;-69
2023/12/08 02:20:58;;;;;;;21.10;7.22;;;;;;;0.21;100.00;100820.97;6251320;28;20041;-68
2023/12/08 02:24:00;;;;;;;14.02;7.22;;;;;;;0.20;100.00;100803.75;6250614;28;20049;-68
2023/12/08 02:27:02;;;;;;;22.70;6.53;;;;;;;0.18;100.00;100796.88;6251414;28;20045;-68
2023/12/08 02:30:04;;;;;;;13.52;6.43;;;;;;;0.15;100.00;100796.94;6251049;28;20073;-68
2023/12/08 02:33:09;;;;;;;15.40;6.68;;;;;;;0.17;100.00;100796.03;6250392;28;20057;-69
2023/12/08 02:36:11;;;;;;;16.38;6.80;;;;;;;0.14;100.00;100795.22;6250755;28;20069;-69
2023/12/08 02:39:14;;;;;;;13.95;6.38;;;;;;;0.11;100.00;100800.41;6250765;28;20548;-69
2023/12/08 02:42:16;;;;;;;12.57;6.00;;;;;;;0.21;100.00;100804.63;6250748;28;20053;-69
2023/12/08 02:45:17;;;;;;;15.57;6.45;;;;;;;0.25;100.00;100801.97;6250470;28;20457;-70
2023/12/08 02:48:18;;;;;;;13.68;5.60;;;;;;;0.30;100.00;100808.84;6250704;28;20049;-68
2023/12/08 02:51:20;;;;;;;12.88;5.57;;;;;;;0.32;100.00;100800.22;6250495;28;20452;-68
2023/12/08 02:54:22;;;;;;;13.85;6.45;;;;;;;0.37;100.00;100790.69;6244646;28;20053;-69
2023/12/08 02:57:24;;;;;;;13.82;5.50;;;;;;;0.36;100.00;100788.09;6244605;28;20064;-68
2023/12/08 03:00:26;;;;;;;16.83;5.78;;;;;;;0.42;100.00;100782.88;6249479;28;20046;-69
2023/12/08 03:03:27;;;;;;;12.45;5.07;;;;;;;0.40;100.00;100780.28;6249508;28;20462;-69
2023/12/08 03:06:28;;;;;;;14.85;6.07;;;;;;;0.32;100.00;100779.53;6249984;28;20053;-70
2023/12/08 03:09:31;;;;;;;17.48;6.43;;;;;;;0.35;100.00;100768.28;6245602;28;20072;-68
2023/12/08 03:12:33;;;;;;;13.18;5.35;;;;;;;0.31;100.00;100749.38;6244913;28;20054;-68
2023/12/08 03:15:34;;;;;;;17.30;6.32;;;;;;;0.20;100.00;100746.06;6249576;28;20061;-68
2023/12/08 03:18:35;;;;;;;13.85;5.28;;;;;;;0.18;100.00;100751.25;6249409;28;20046;-70
2023/12/08 03:21:37;;;;;;;16.15;6.85;;;;;;;0.29;100.00;100745.97;6249901;28;20044;-68
2023/12/08 03:24:39;;;;;;;17.40;6.15;;;;;;;0.33;100.00;100742.47;6248832;28;20370;-68
2023/12/08 03:27:41;;;;;;;12.98;6.18;;;;;;;0.32;100.00;100717.50;6249735;28;20050;-68
2023/12/08 03:30:42;;;;;;;12.88;5.90;;;;;;;0.19;100.00;100723.69;6247098;28;20060;-68
2023/12/08 03:33:43;;;;;;;12.63;6.28;;;;;;;0.22;100.00;100731.38;6247698;28;20396;-69
2023/12/08 03:36:44;;;;;;;11.75;5.15;;;;;;;0.28;100.00;100714.97;6248778;28;20045;-68
2023/12/08 03:39:47;;;;;;;11.15;4.90;;;;;;;0.22;100.00;100728.78;6249476;28;20449;-68
2023/12/08 03:42:48;;;;;;;16.45;6.90;;;;;;;0.27;100.00;100733.91;6249433;28;20442;-68
2023/12/08 03:45:50;;;;;;;13.80;6.28;;;;;;;0.36;100.00;100734.66;6249514;28;20046;-68
2023/12/08 03:48:52;;;;;;;12.45;5.82;;;;;;;0.40;100.00;100731.16;6249174;28;20057;-67
2023/12/08 03:51:53;;;;;;;18.52;6.05;;;;;;;0.31;100.00;100722.66;6249327;28;20041;-69
2023/12/08 03:54:56;;;;;;;10.70;5.22;;;;;;;0.25;100.00;100724.47;6249094;28;20053;-68
2023/12/08 03:57:58;;;;;;;15.70;6.47;;;;;;;0.22;100.00;100726.22;6249226;28;20081;-68
2023/12/08 04:00:59;;;;;;;16.05;6.13;;;;;;;0.22;100.00;100734.81;6248170;28;20044;-68
2023/12/08 04:04:00;;;;;;;18.73;5.82;;;;;;;0.19;100.00;100744.34;6248057;28;20046;-68
2023/12/08 04:07:02;;;;;;;15.18;6.30;;;;;;;0.24;100.00;100727.91;6246399;28;20045;-70
2023/12/08 04:10:06;;;;;;;12.85;5.95;;;;;;;0.26;100.00;100722.72;6241078;28;20151;-70
2023/12/08 04:13:07;;;;;;;11.13;5.30;;;;;;;0.24;100.00;100714.16;6249305;28;20054;-68
2023/12/08 04:16:09;;;;;;;11.98;6.28;;;;;;;0.20;100.00;100705.56;6250651;28;20434;-68
2023/12/08 04:19:12;;;;;;;15.25;6.05;;;;;;;0.32;100.00;100708.88;6254235;28;20473;-68
2023/12/08 04:22:14;;;;;;;13.57;5.70;;;;;;;0.33;100.00;100705.44;6253876;28;20053;-69
2023/12/08 04:25:17;;;;;;;12.25;6.28;;;;;;;0.39;100.00;100715.69;6253912;28;20095;-69
2023/12/08 04:28:18;;;;;;;15.40;6.00;;;;;;;0.31;100.00;100704.56;6253676;28;20049;-69
2023/12/08 04:31:20;;;;;;;15.68;6.38;;;;;;;0.31;100.00;100708.00;6253491;28;20072;-69
2023/12/08 04:34:21;;;;;;;14.93;5.95;;;;;;;0.30;100.00;100726.13;6253637;28;20049;-69
2023/12/08 04:37:22;;;;;;;18.25;5.50;;;;;;;0.32;100.00;100726.97;6253339;28;20049;-69
2023/12/08 04:40:25;;;;;;;19.05;6.22;;;;;;;0.32;100.00;100720.09;6253708;28;20052;-69
2023/12/08 04:43:26;;;;;;;13.50;5.85;;;;;;;0.32;100.00;100721.78;6252862;28;20049;-69
2023/12/08 04:46:28;;;;;;;13.75;6.57;;;;;;;0.34;100.00;100718.31;6253654;28;20533;-69
2023/12/08 04:49:30;;;;;;;12.80;6.45;;;;;;;0.34;100.00;100722.66;6251970;28;20049;-69
2023/12/08 04:52:32;;;;;;;14.90;6.45;;;;;;;0.38;100.00;100716.56;6251912;28;20050;-69
2023/12/08 04:55:34;;;;;;;11.40;6.72;;;;;;;0.27;100.00;100710.66;6267836;22;20047;-73
2023/12/08 04:58:38;;;;;;;14.48;6.18;;;;;;;0.34;100.00;100708.00;6249508;28;20046;-74
2023/12/08 05:01:39;;;;;;;17.13;7.28;;;;;;;0.36;100.00;100707.97;6253157;28;20053;-75
2023/12/08 05:04:41;;;;;;;15.88;7.00;;;;;;;0.32;100.00;100708.88;6242939;28;20465;-74
2023/12/08 05:07:43;;;;;;;16.95;7.35;;;;;;;0.35;100.00;100703.66;6242085;28;20057;-74
2023/12/08 05:10:45;;;;;;;15.30;7.20;;;;;;;0.37;100.00;100709.69;6244533;28;20053;-74
2023/12/08 05:13:47;;;;;;;20.30;7.40;;;;;;;0.35;100.00;100701.94;6252642;28;20354;-73
2023/12/08 05:16:48;;;;;;;21.05;7.25;;;;;;;0.40;100.00;100713.06;6252826;28;20053;-73
2023/12/08 05:19:49;;;;;;;15.88;7.43;;;;;;;0.43;100.00;100707.03;6252971;28;20046;-73
2023/12/08 05:22:51;;;;;;;15.35;6.95;;;;;;;0.42;100.00;100703.59;6252658;28;20049;-73
2023/12/08 05:25:53;;;;;;;19.75;7.50;;;;;;;0.41;100.00;100695.84;6252329;28;20053;-74
2023/12/08 05:28:55;;;;;;;14.82;7.22;;;;;;;0.35;100.00;100695.91;6249928;28;20052;-73
2023/12/08 05:31:56;;;;;;;15.18;7.63;;;;;;;0.42;100.00;100697.56;6243924;28;20339;-73
2023/12/08 05:34:57;;;;;;;17.05;7.22;;;;;;;0.46;100.00;100700.09;6252291;28;20052;-73
2023/12/08 05:37:59;;;;;;;16.00;6.68;;;;;;;0.53;100.00;100700.00;6241496;28;20508;-69
2023/12/08 05:41:03;;;;;;;19.35;7.68;;;;;;;0.50;100.00;100696.59;6240550;28;20101;-72
2023/12/08 05:44:05;;;;;;;20.45;8.20;;;;;;;0.34;100.00;100692.47;6237826;28;20444;-73
2023/12/08 05:47:06;;;;;;;17.13;7.35;;;;;;;0.37;100.00;100689.03;6239997;28;20049;-74
2023/12/08 05:50:08;;;;;;;17.90;7.95;;;;;;;0.47;100.00;100693.19;6238374;28;20049;-73
2023/12/08 05:53:09;;;;;;;24.92;10.07;;;;;;;0.43;100.00;100700.13;6239373;28;20064;-73
2023/12/08 05:56:12;;;;;;;18.58;9.10;;;;;;;0.30;100.00;100693.38;6238670;28;20045;-73
2023/12/08 05:59:14;;;;;;;20.70;8.35;;;;;;;0.34;100.00;100691.63;6238951;28;20052;-73
2023/12/08 06:02:15;;;;;;;19.08;8.45;;;;;;;0.39;100.00;100688.09;6238976;28;20045;-72
2023/12/08 06:05:16;;;;;;;19.20;8.43;;;;;;;0.39;100.00;100671.75;6238206;28;20045;-73
2023/12/08 06:08:18;;;;;;;33.80;7.63;;;;;;;0.35;100.00;100673.50;6239155;28;20057;-74
2023/12/08 06:11:20;;;;;;;19.63;7.78;;;;;;;0.38;100.00;100675.22;6237716;28;20049;-73
2023/12/08 06:14:22;;;;;;;14.25;6.93;;;;;;;0.47;100.00;100680.25;6240646;28;20041;-73
2023/12/08 06:17:23;;;;;;;17.58;7.22;;;;;;;0.43;100.00;100669.09;6228115;28;20359;-73
2023/12/08 06:20:24;;;;;;;26.73;8.65;;;;;;;0.31;100.00;100668.41;6235774;28;20053;-74
2023/12/08 06:23:25;;;;;;;14.55;7.53;;;;;;;0.37;100.00;100676.94;6239285;28;20056;-73
2023/12/08 06:26:28;;;;;;;20.85;7.97;;;;;;;0.43;100.00;100676.00;6239645;28;20045;-73
2023/12/08 06:29:29;;;;;;;24.90;8.63;;;;;;;0.50;100.00;100673.31;6238172;28;20052;-69
2023/12/08 06:32:31;;;;;;;16.95;7.55;;;;;;;0.45;100.00;100667.34;6239136;28;20038;-69
2023/12/08 06:35:32;;;;;;;14.45;7.32;;;;;;;0.49;100.00;100675.91;6237316;28;20049;-73
2023/12/08 06:38:34;;;;;;;19.70;8.10;;;;;;;0.48;100.00;100656.13;6243809;28;20429;-73
2023/12/08 06:41:36;;;;;;;17.13;7.28;;;;;;;0.46;100.00;100666.47;6239302;28;20104;-73
2023/12/08 06:44:38;;;;;;;17.58;7.70;;;;;;;0.52;100.00;100652.63;6225813;28;20057;-75
2023/12/08 06:47:39;;;;;;;18.00;7.78;;;;;;;0.52;100.00;100664.69;6226042;28;20057;-75
2023/12/08 06:50:40;;;;;;;15.45;6.40;;;;;;;0.56;100.00;100659.47;6226143;28;20458;-73
2023/12/08 06:53:42;;;;;;;17.20;7.28;;;;;;;0.49;100.00;100658.66;6226155;28;20061;-75
2023/12/08 06:56:44;;;;;;;18.33;8.15;;;;;;;0.43;100.00;100661.34;6227824;28;20058;-73
2023/12/08 06:59:46;;;;;;;17.75;7.68;;;;;;;0.50;100.00;100659.56;6241483;28;20049;-74
2023/12/08 07:02:47;;;;;;;14.82;7.45;;;;;;;0.48;100.00;100648.34;6249362;28;20054;-73
2023/12/08 07:05:48;;;;;;;20.52;7.43;;;;;;;0.44;100.00;100655.28;6241975;28;20045;-73
2023/12/08 07:08:50;;;;;;;16.20;7.13;;;;;;;0.47;100.00;100657.00;6247624;28;20060;-74
2023/12/08 07:11:52;;;;;;;20.10;7.55;;;;;;;0.43;100.00;100655.31;6244153;28;20049;-74
2023/12/08 07:14:54;;;;;;;16.25;7.05;;;;;;;0.46;100.00;100647.53;6241801;28;20049;-73
2023/12/08 07:17:55;;;;;;;16.77;7.43;;;;;;;0.40;100.00;100658.78;6250158;28;20339;-72
2023/12/08 07:20:57;;;;;;;16.30;7.53;;;;;;;0.47;100.00;100647.50;6250525;28;20076;-73
2023/12/08 07:23:58;;;;;;;21.85;8.52;;;;;;;0.46;100.00;100650.97;6241499;28;20049;-73
2023/12/08 07:27:01;;;;;;;14.25;7.78;;;;;;;0.45;100.00;100646.66;6248653;28;20045;-74
2023/12/08 07:30:03;;;;;;;20.35;7.30;;;;;;;0.48;100.00;100638.88;6241866;28;20072;-73
2023/12/08 07:33:04;;;;;;;14.82;7.43;;;;;;;0.41;100.00;100646.72;6245808;28;20050;-73
2023/12/08 07:36:06;;;;;;;28.17;9.73;;;;;;;0.36;100.00;100641.59;6244176;28;20433;-75
2023/12/08 07:39:09;;;;;;;23.13;9.35;;;;;;;0.45;100.00;100643.22;6241513;28;20060;-74
2023/12/08 07:42:12;;;;;;;15.13;6.85;;;;;;;0.37;100.00;100635.59;6240557;28;20044;-73
2023/12/08 07:45:13;;;;;;;18.38;7.57;;;;;;;0.46;100.00;100635.47;6241559;28;20045;-74
2023/12/08 07:48:15;;;;;;;21.42;8.43;;;;;;;0.54;100.00;100637.06;6249246;28;20349;-73
2023/12/08 07:51:16;;;;;;;15.88;7.28;;;;;;;0.54;100.00;100632.75;6245563;28;20038;-73
2023/12/08 07:54:17;;;;;;;19.90;7.53;;;;;;;0.60;100.00;100642.19;6244695;28;20056;-73
2023/12/08 07:57:20;;;;;;;17.98;7.05;;;;;;;0.62;100.00;100630.91;6236546;28;20340;-73
2023/12/08 08:00:22;;;;;;;17.48;7.70;;;;;;;0.55;100.00;100631.06;6242022;28;20045;-73
2023/12/08 08:03:23;;;;;;;16.00;7.00;;;;;;;0.47;100.00;100626.81;6242581;28;20133;-73
2023/12/08 08:06:25;;;;;;;16.20;7.10;;;;;;;0.42;100.00;100626.03;6241309;28;20449;-71
2023/12/08 08:09:26;;;;;;;21.83;7.82;;;;;;;0.53;100.00;100622.44;6249841;28;20159;-71
2023/12/08 08:12:32;;;;;;;17.60;6.72;;;;;;;0.52;100.00;100638.84;6246753;28;20349;-72
2023/12/08 08:15:33;;;;;;;20.40;6.32;;;;;;;0.50;100.00;100650.06;6250197;28;20441;-71
2023/12/08 08:18:34;;;;;;;15.30;7.15;;;;;;;0.55;100.00;100641.38;6245754;28;20442;-71
2023/12/08 08:21:36;;;;;;;19.10;8.43;;;;;;;0.59;100.00;100641.31;6250772;28;20037;-72
2023/12/08 08:24:37;;;;;;;17.45;7.40;;;;;;;0.64;100.00;100643.84;6245162;28;20061;-72
2023/12/08 08:27:40;;;;;;;14.95;6.93;;;;;;;0.53;100.00;100641.38;6245857;28;20045;-74
2023/12/08 08:30:44;;;;;;;12.43;6.28;;;;;;;0.53;100.00;100640.53;6253757;28;20183;-73
2023/12/08 08:33:45;;;;;;;18.83;7.80;;;;;;;0.56;100.00;100635.34;6253564;28;20054;-74
2023/12/08 08:36:46;;;;;;;19.23;7.80;;;;;;;0.57;100.00;100644.78;6247487;28;20060;-72
2023/12/08 08:39:48;;;;;;;19.15;7.32;;;;;;;0.50;100.00;100642.31;6248128;28;20061;-74
2023/12/08 08:42:50;;;;;;;22.38;8.68;;;;;;;0.47;100.00;100644.06;6245400;28;20052;-72
2023/12/08 08:45:52;;;;;;;16.58;7.10;;;;;;;0.46;100.00;100647.53;6253102;28;20056;-71
2023/12/08 08:48:54;;;;;;;15.73;6.47;;;;;;;0.38;100.00;100636.44;6245134;28;20049;-71
2023/12/08 08:51:55;;;;;;;17.33;8.10;;;;;;;0.40;100.00;100632.94;6253144;28;20056;-70
2023/12/08 08:54:57;;;;;;;16.25;7.00;;;;;;;0.40;100.00;100635.53;6253082;28;20084;-70
2023/12/08 08:57:59;;;;;;;16.58;7.15;;;;;;;0.42;100.00;100638.97;6253087;28;20053;-71
2023/12/08 09:01:01;;;;;;;23.58;8.32;;;;;;;0.37;100.00;100625.25;6252690;28;20354;-74
2023/12/08 09:04:02;;;;;;;13.57;6.65;;;;;;;0.46;100.00;100624.28;6244153;28;21765;-71
2023/12/08 09:07:04;;;;;;;15.85;6.82;;;;;;;0.40;100.00;100626.91;6250814;28;20057;-71
2023/12/08 09:10:07;;;;;;;17.45;7.80;;;;;;;0.46;100.00;100622.53;6244544;28;20046;-72
2023/12/08 09:13:10;;;;;;;19.80;8.85;;;;;;;0.45;100.00;100625.97;6247633;28;20434;-71
2023/12/08 09:16:11;;;;;;;13.93;6.38;;;;;;;0.52;100.00;100634.53;6243510;28;20049;-72
2023/12/08 09:19:12;;;;;;;18.55;7.57;;;;;;;0.59;100.00;100637.84;6252654;28;20053;-72
2023/12/08 09:22:14;;;;;;;20.02;7.63;;;;;;;0.54;100.00;100655.16;6252664;28;20056;-73
2023/12/08 09:25:16;;;;;;;20.35;8.43;;;;;;;0.50;100.00;100649.22;6252257;28;20131;-71
2023/12/08 09:28:19;;;;;;;17.67;7.78;;;;;;;0.55;100.00;100664.66;6252664;28;20441;-73
2023/12/08 09:31:20;;;;;;;18.48;7.38;;;;;;;0.55;100.00;100660.34;6252317;28;20053;-72
2023/12/08 09:34:21;;;;;;;21.83;7.82;;;;;;;0.50;100.00;100657.81;6247477;28;20049;-72
2023/12/08 09:37:23;;;;;;;15.57;7.80;;;;;;;0.46;100.00;100656.16;6243241;28;20049;-71
2023/12/08 09:40:25;;;;;;;21.95;8.35;;;;;;;0.44;100.00;100650.13;6239841;28;20045;-72
2023/12/08 09:43:38;;;;;;;19.15;7.50;;;;;;;0.47;100.00;100649.25;6233532;28;20050;-71
2023/12/08 09:46:42;;;;;;;16.42;7.45;;;;;;;0.45;100.00;100645.81;6239283;28;20052;-72
2023/12/08 09:49:46;;;;;;;22.23;8.65;;;;;;;0.39;100.00;100646.75;6228507;28;20268;-71
2023/12/08 09:52:49;;;;;;;20.45;7.82;;;;;;;0.45;100.00;100641.50;6227273;28;20046;-72
2023/12/08 09:55:50;;;;;;;17.15;7.95;;;;;;;0.44;100.00;100652.72;6230241;28;20046;-73
2023/12/08 09:58:54;;;;;;;14.15;7.40;;;;;;;0.47;100.00;100650.09;6248897;28;20056;-73
2023/12/08 10:01:56;;;;;;;17.77;6.35;;;;;;;0.52;100.00;100647.44;6243034;28;20053;-73
2023/12/08 10:04:57;;;;;;;15.23;7.13;;;;;;;0.42;100.00;100638.13;6243088;28;20060;-73
2023/12/08 10:08:00;;;;;;;20.42;8.30;;;;;;;0.38;100.00;100619.19;6251172;28;20049;-74
2023/12/08 10:11:02;;;;;;;18.75;8.35;;;;;;;0.36;100.00;100614.91;6251232;28;20041;-73
2023/12/08 10:14:06;;;;;;;18.10;7.95;;;;;;;0.36;100.00;100615.75;6234037;28;20065;-74
2023/12/08 10:17:07;;;;;;;22.17;8.75;;;;;;;0.44;100.00;100608.75;6226813;28;20053;-74
2023/12/08 10:20:10;;;;;;;18.90;7.60;;;;;;;0.49;100.00;100600.94;6226868;28;20053;-74
2023/12/08 10:23:19;;;;;;;20.08;8.02;;;;;;;0.40;100.00;100593.31;6234563;28;20115;-74
2023/12/08 10:26:24;;;;;;;19.98;7.88;;;;;;;0.53;100.00;100581.06;6243096;28;20053;-73
2023/12/08 10:29:31;;;;;;;16.58;7.63;;;;;;;0.61;100.00;100577.50;6243026;28;20076;-74
2023/12/08 10:32:33;;;;;;;20.15;8.05;;;;;;;0.67;100.00;100577.41;6251280;28;20130;-74
2023/12/08 10:35:39;;;;;;;20.40;8.27;;;;;;;0.64;100.00;100584.38;6250904;28;20053;-73
2023/12/08 10:38:40;;;;;;;24.70;9.50;;;;;;;0.63;100.00;100582.63;6250597;28;20046;-74
2023/12/08 10:41:42;;;;;;;19.25;8.68;;;;;;;0.65;100.00;100589.50;6243077;28;20446;-72
2023/12/08 10:44:48;;;;;;;22.25;8.13;;;;;;;0.69;100.00;100596.34;6250906;28;20562;-74
2023/12/08 10:47:50;;;;;;;18.65;7.57;;;;;;;0.78;100.00;100594.50;6250884;28;20049;-75
2023/12/08 10:50:53;;;;;;;18.88;7.80;;;;;;;0.81;100.00;100605.63;6250432;28;20057;-75
2023/12/08 10:53:57;;;;;;;14.95;7.32;;;;;;;0.80;100.00;100603.94;6250372;28;20056;-75
2023/12/08 10:56:59;;;;;;;17.50;6.80;;;;;;;0.94;100.00;100607.16;6250507;28;20053;-75
2023/12/08 11:00:11;;;;;;;21.08;8.10;;;;;;;0.96;100.00;100608.00;6247728;28;20062;-74
2023/12/08 11:03:15;;;;;;;19.70;7.72;;;;;;;0.92;100.00;100597.72;6246296;28;20438;-75
2023/12/08 11:06:23;;;;;;;21.92;7.63;;;;;;;0.87;100.00;100602.13;6250321;28;20156;-75
2023/12/08 11:09:29;;;;;;;20.27;8.15;;;;;;;0.78;100.00;100590.19;6234874;28;20255;-74
2023/12/08 11:12:33;;;;;;;19.38;7.25;;;;;;;0.76;100.00;100586.75;6229775;28;20046;-76
2023/12/08 11:15:43;;;;;;;16.95;6.72;;;;;;;0.73;100.00;100577.31;6249725;28;20049;-77
2023/12/08 11:18:45;;;;;;;18.25;7.20;;;;;;;0.67;100.00;100576.53;6250574;28;20429;-76
2023/12/08 11:21:47;;;;;;;14.52;7.20;;;;;;;0.76;100.00;100573.81;6250430;28;20053;-75
2023/12/08 11:24:49;;;;;;;15.88;7.22;;;;;;;0.75;100.00;100566.94;6228741;28;20050;-75
2023/12/08 11:27:58;;;;;;;17.42;7.10;;;;;;;0.71;100.00;100566.13;6229968;28;20092;-74
2023/12/08 11:31:09;;;;;;;13.88;6.82;;;;;;;0.78;100.00;100561.72;6251012;28;20353;-74
2023/12/08 11:34:14;;;;;;;13.88;7.03;;;;;;;0.84;100.00;100571.97;6249256;28;20401;-74
2023/12/08 11:37:17;;;;;;;18.48;6.88;;;;;;;0.93;100.00;100563.19;6250927;28;20380;-75
2023/12/08 11:40:18;;;;;;;21.63;8.38;;;;;;;0.92;100.00;100566.69;6246682;28;20049;-74
2023/12/08 11:43:20;;;;;;;18.42;7.00;;;;;;;0.96;100.00;100561.44;6254711;28;20053;-74
2023/12/08 11:46:22;;;;;;;18.65;7.90;;;;;;;1.05;100.00;100565.59;6246498;28;20458;-74
2023/12/08 11:49:25;;;;;;;14.70;7.28;;;;;;;1.07;100.00;100565.56;6251218;28;20050;-74
2023/12/08 11:52:28;;;;;;;14.77;7.18;;;;;;;1.06;100.00;100569.03;6245193;28;20044;-74
2023/12/08 11:55:30;;;;;;;20.40;7.97;;;;;;;1.06;100.00;100576.78;6245999;28;20052;-73
2023/12/08 11:58:33;;;;;;;17.25;7.30;;;;;;;1.13;100.00;100570.59;6254502;28;20334;-74
2023/12/08 12:01:38;;;;;;;17.10;6.72;;;;;;;1.09;100.00;100564.66;6246054;28;20140;-74
2023/12/08 12:04:40;;;;;;;15.60;7.07;;;;;;;1.07;100.00;100556.06;6254258;28;20134;-72
2023/12/08 12:07:45;;;;;;;16.23;7.53;;;;;;;1.02;100.00;100563.03;6253905;28;20168;-73
2023/12/08 12:10:48;;;;;;;16.08;7.32;;;;;;;1.17;100.00;100554.16;6254325;28;20180;-73
2023/12/08 12:13:52;;;;;;;22.27;8.80;;;;;;;1.09;100.00;100550.84;6238546;28;20050;-72
2023/12/08 12:16:55;;;;;;;15.13;6.82;;;;;;;1.12;100.00;100549.06;6229234;28;20060;-74
2023/12/08 12:19:57;;;;;;;24.27;8.00;;;;;;;1.17;100.00;100552.41;6229492;28;20050;-74
2023/12/08 12:22:59;;;;;;;18.25;6.93;;;;;;;1.08;100.00;100575.88;6229340;28;20046;-75
2023/12/08 12:26:00;;;;;;;16.40;7.65;;;;;;;1.12;100.00;100568.91;6228988;28;20461;-75
2023/12/08 12:29:02;;;;;;;19.30;8.00;;;;;;;1.16;100.00;100571.41;6246283;28;20327;-76
2023/12/08 12:32:07;;;;;;;18.63;7.22;;;;;;;1.23;100.00;100577.34;6249087;28;20450;-76
2023/12/08 12:35:09;;;;;;;17.25;7.10;;;;;;;1.20;100.00;100573.06;6244424;28;20050;-76
2023/12/08 12:38:13;;;;;;;18.27;7.18;;;;;;;1.21;100.00;100567.00;6251885;28;20049;-74
2023/12/08 12:41:21;;;;;;;13.85;6.07;;;;;;;1.22;100.00;100568.72;6253524;28;20159;-76
2023/12/08 12:44:22;;;;;;;17.50;7.32;;;;;;;1.24;100.00;100569.56;6253598;28;20469;-74
2023/12/08 12:47:25;;;;;;;19.50;7.30;;;;;;;1.23;100.00;100564.41;6253198;28;20362;-74
2023/12/08 12:50:27;;;;;;;15.40;6.97;;;;;;;1.21;100.00;100579.94;6253626;28;20046;-75
2023/12/08 12:53:29;;;;;;;13.02;6.07;;;;;;;1.17;100.00;100570.53;6252932;28;20343;-77
2023/12/08 12:56:30;;;;;;;14.52;6.43;;;;;;;1.22;100.00;100573.88;6253155;28;20364;-77
2023/12/08 12:59:32;;;;;;;13.65;5.93;;;;;;;1.13;100.00;100578.38;6253142;28;20061;-76
2023/12/08 13:02:34;;;;;;;13.63;6.35;;;;;;;1.18;100.00;100574.84;6253090;28;20042;-76
2023/12/08 13:05:44;;;;;;;20.42;7.22;;;;;;;1.17;100.00;100580.88;6252538;28;20060;-78
2023/12/08 13:08:45;;;;;;;15.70;6.75;;;;;;;1.23;100.00;100574.78;6252882;28;20061;-77
2023/12/08 13:11:47;;;;;;;15.25;6.70;;;;;;;1.23;100.00;100569.59;6252734;28;20084;-76
2023/12/08 13:14:49;;;;;;;16.27;7.57;;;;;;;1.22;100.00;100567.84;6252736;28;20045;-74
2023/12/08 13:17:52;;;;;;;17.73;6.85;;;;;;;1.14;100.00;100572.34;6251706;28;20054;-75
2023/12/08 13:20:53;;;;;;;15.77;5.82;;;;;;;1.20;100.00;100580.00;6244365;28;20054;-74
2023/12/08 13:23:54;;;;;;;11.13;5.70;;;;;;;1.17;100.00;100577.44;6252333;28;20565;-74
2023/12/08 13:26:56;;;;;;;17.95;7.30;;;;;;;1.20;100.00;100580.00;6244575;28;20057;-74
2023/12/08 13:29:57;;;;;;;14.02;7.20;;;;;;;1.25;100.00;100575.56;6252539;28;20053;-76
2023/12/08 13:33:00;;;;;;;17.48;7.35;;;;;;;1.25;100.00;100579.03;6251938;28;20053;-74
2023/12/08 13:36:02;;;;;;;14.32;6.55;;;;;;;1.31;100.00;100569.44;6239920;28;20351;-76
2023/12/08 13:39:04;;;;;;;17.17;7.03;;;;;;;1.38;100.00;100582.25;6250621;28;20061;-76
2023/12/08 13:42:06;;;;;;;16.45;6.82;;;;;;;1.39;100.00;100581.34;6246941;28;20101;-75
2023/12/08 13:45:08;;;;;;;12.57;5.53;;;;;;;1.40;100.00;100574.44;6243928;28;20057;-75
2023/12/08 13:48:11;;;;;;;17.23;7.60;;;;;;;1.37;100.00;100564.16;6251355;28;20053;-75
2023/12/08 13:51:12;;;;;;;21.23;7.70;;;;;;;1.32;100.00;100572.00;6252006;28;20053;-75
2023/12/08 13:54:13;;;;;;;16.50;7.97;;;;;;;1.43;100.00;100583.00;6246608;28;20057;-76
2023/12/08 13:57:15;;;;;;;18.00;7.13;;;;;;;1.43;100.00;100585.59;6243610;28;20057;-75